createdAt,value
2018-04-16T00:01:02.305Z,11.62
2018-04-16T00:03:29.859Z,11.56
2018-04-16T00:05:57.458Z,11.54
2018-04-16T00:08:25.219Z,11.61
2018-04-16T00:10:52.833Z,11.68
2018-04-16T00:13:20.778Z,11.78
2018-04-16T00:15:48.333Z,11.79
2018-04-16T00:18:16.019Z,11.86
2018-04-16T00:20:43.581Z,11.94
2018-04-16T00:23:11.122Z,12.10
2018-04-16T00:25:38.719Z,12.17
2018-04-16T00:28:06.311Z,12.08
2018-04-16T00:30:33.887Z,12.10
2018-04-16T00:33:07.147Z,12.12
2018-04-16T00:35:40.566Z,12.05
2018-04-16T00:38:13.817Z,12.08
2018-04-16T00:40:47.130Z,12.09
2018-04-16T00:43:20.125Z,12.14
2018-04-16T00:45:53.229Z,12.21
2018-04-16T00:48:26.428Z,12.26
2018-04-16T00:50:59.586Z,12.40
2018-04-16T00:53:44.909Z,12.46
2018-04-16T00:56:18.009Z,12.53
2018-04-16T00:58:51.448Z,12.56
2018-04-16T01:01:24.433Z,12.63
2018-04-16T01:03:57.884Z,12.68
2018-04-16T01:06:31.049Z,12.64
2018-04-16T01:09:04.189Z,12.55
2018-04-16T01:11:37.229Z,12.48
2018-04-16T01:14:10.366Z,12.47
2018-04-16T01:16:43.613Z,12.54
2018-04-16T01:19:16.886Z,12.57
2018-04-16T01:21:50.069Z,12.60
2018-04-16T01:24:23.290Z,12.58
2018-04-16T01:26:56.388Z,12.61
2018-04-16T01:29:29.501Z,12.51
2018-04-16T01:32:02.657Z,12.49
2018-04-16T01:34:35.805Z,12.39
2018-04-16T01:37:09.229Z,12.26
2018-04-16T01:42:49.767Z,12.17
2018-04-16T01:45:22.938Z,12.10
2018-04-16T01:47:56.473Z,12.09
2018-04-16T01:50:29.723Z,11.98
2018-04-16T01:53:02.833Z,11.88
2018-04-16T01:55:36.393Z,11.79
2018-04-16T01:58:09.567Z,11.74
2018-04-16T02:00:42.804Z,11.63
2018-04-16T02:03:16.305Z,11.54
2018-04-16T02:05:49.513Z,11.55
2018-04-16T02:08:22.762Z,11.54
2018-04-16T02:13:57.895Z,11.60
2018-04-16T02:16:31.129Z,11.71
2018-04-16T02:19:04.199Z,11.83
2018-04-16T02:21:37.624Z,11.83
2018-04-16T02:24:11.137Z,11.92
2018-04-16T02:26:44.250Z,11.88
2018-04-16T02:29:17.598Z,12.02
2018-04-16T02:31:50.777Z,12.01
2018-04-16T02:34:24.197Z,11.96
2018-04-16T02:36:57.411Z,11.94
2018-04-16T02:39:30.781Z,11.84
2018-04-16T02:42:04.092Z,11.74
2018-04-16T02:44:37.289Z,11.60
2018-04-16T02:47:10.429Z,11.37
2018-04-16T02:49:43.912Z,11.28
2018-04-16T02:52:17.227Z,11.22
2018-04-16T02:54:50.498Z,11.13
2018-04-16T02:57:24.063Z,11.05
2018-04-16T02:59:57.249Z,11.04
2018-04-16T03:02:30.530Z,11.07
2018-04-16T03:05:03.537Z,11.17
2018-04-16T03:07:36.971Z,11.22
2018-04-16T03:10:10.177Z,11.26
2018-04-16T03:12:43.603Z,11.30
2018-04-16T03:15:16.870Z,11.17
2018-04-16T03:17:50.103Z,10.88
2018-04-16T03:20:23.203Z,10.75
2018-04-16T03:22:56.349Z,10.65
2018-04-16T03:25:29.678Z,10.45
2018-04-16T03:28:02.785Z,10.58
2018-04-16T03:30:36.054Z,10.75
2018-04-16T03:33:09.349Z,10.94
2018-04-16T03:35:42.727Z,11.01
2018-04-16T03:38:16.019Z,10.97
2018-04-16T03:40:49.176Z,10.92
2018-04-16T03:43:22.382Z,10.92
2018-04-16T03:45:55.458Z,11.05
2018-04-16T03:48:28.702Z,10.92
2018-04-16T03:51:01.980Z,10.78
2018-04-16T03:53:31.437Z,10.77
2018-04-16T03:56:00.606Z,10.81
2018-04-16T03:58:28.383Z,10.88
2018-04-16T04:00:55.975Z,10.92
2018-04-16T04:03:23.741Z,10.90
2018-04-16T04:05:51.548Z,10.83
2018-04-16T04:08:19.243Z,10.77
2018-04-16T04:10:46.817Z,10.81
2018-04-16T04:13:14.394Z,10.72
2018-04-16T04:15:41.984Z,10.70
2018-04-16T04:18:09.787Z,10.74
2018-04-16T04:20:37.338Z,10.71
2018-04-16T04:23:17.225Z,10.74
2018-04-16T04:25:56.839Z,10.63
2018-04-16T04:28:36.437Z,10.53
2018-04-16T04:31:03.985Z,10.50
2018-04-16T04:33:31.549Z,10.58
2018-04-16T04:35:59.345Z,10.66
2018-04-16T04:38:26.893Z,10.58
2018-04-16T04:40:54.474Z,10.51
2018-04-16T04:43:22.039Z,10.17
2018-04-16T04:45:50.164Z,10.03
2018-04-16T04:48:17.849Z,9.99
2018-04-16T04:50:45.511Z,9.97
2018-04-16T04:53:13.244Z,10.28
2018-04-16T04:55:40.828Z,10.34
2018-04-16T04:58:08.374Z,10.39
2018-04-16T05:00:35.977Z,10.48
2018-04-16T05:03:03.796Z,10.63
2018-04-16T05:05:31.348Z,10.67
2018-04-16T05:07:58.947Z,10.74
2018-04-16T05:10:26.503Z,10.87
2018-04-16T05:12:54.292Z,10.93
2018-04-16T05:15:21.879Z,10.89
2018-04-16T05:17:49.499Z,10.86
2018-04-16T05:20:17.234Z,10.81
2018-04-16T05:22:44.879Z,10.85
2018-04-16T05:25:12.670Z,11.03
2018-04-16T05:27:40.859Z,11.10
2018-04-16T05:30:08.534Z,11.17
2018-04-16T05:32:36.088Z,11.32
2018-04-16T05:35:03.697Z,11.46
2018-04-16T05:37:31.282Z,11.56
2018-04-16T05:39:58.861Z,11.39
2018-04-16T05:42:26.452Z,11.53
2018-04-16T05:44:54.024Z,11.55
2018-04-16T05:47:21.854Z,11.56
2018-04-16T05:49:49.454Z,11.43
2018-04-16T05:52:17.024Z,11.26
2018-04-16T05:54:44.878Z,10.91
2018-04-16T05:57:12.493Z,10.88
2018-04-16T05:59:40.129Z,10.90
2018-04-16T06:02:07.681Z,10.79
2018-04-16T06:04:35.482Z,10.90
2018-04-16T06:07:03.067Z,11.15
2018-04-16T06:09:30.615Z,11.32
2018-04-16T06:11:58.190Z,11.59
2018-04-16T06:14:25.784Z,11.64
2018-04-16T06:16:53.412Z,11.47
2018-04-16T06:19:20.990Z,11.67
2018-04-16T06:21:48.559Z,11.80
2018-04-16T06:24:16.338Z,11.97
2018-04-16T06:26:44.057Z,12.12
2018-04-16T06:29:11.677Z,13.03
2018-04-16T06:31:39.505Z,13.59
2018-04-16T06:34:07.282Z,13.82
2018-04-16T06:36:34.872Z,13.64
2018-04-16T06:39:02.438Z,12.82
2018-04-16T06:41:30.068Z,12.75
2018-04-16T06:43:57.879Z,13.45
2018-04-16T06:46:25.442Z,12.80
2018-04-16T06:48:53.028Z,12.54
2018-04-16T06:51:20.695Z,12.88
2018-04-16T06:53:48.890Z,13.48
2018-04-16T06:56:16.674Z,13.18
2018-04-16T06:58:44.221Z,13.62
2018-04-16T07:01:11.959Z,14.11
2018-04-16T07:03:39.695Z,13.88
2018-04-16T07:06:07.482Z,13.20
2018-04-16T07:08:35.253Z,13.40
2018-04-16T07:11:02.901Z,13.62
2018-04-16T07:13:30.492Z,13.21
2018-04-16T07:15:58.116Z,13.52
2018-04-16T07:18:25.708Z,12.82
2018-04-16T07:20:53.315Z,13.38
2018-04-16T07:23:20.996Z,13.05
2018-04-16T07:25:48.677Z,12.96
2018-04-16T07:28:16.346Z,13.07
2018-04-16T07:30:44.123Z,13.37
2018-04-16T07:33:11.681Z,13.23
2018-04-16T07:35:39.380Z,13.55
2018-04-16T07:38:06.956Z,13.08
2018-04-16T07:40:34.682Z,13.38
2018-04-16T07:43:02.254Z,13.74
2018-04-16T07:45:29.851Z,13.77
2018-04-16T07:47:57.421Z,13.51
2018-04-16T07:50:24.986Z,13.81
2018-04-16T07:52:52.559Z,13.99
2018-04-16T07:55:20.126Z,14.13
2018-04-16T07:57:47.693Z,13.81
2018-04-16T08:00:15.302Z,13.50
2018-04-16T08:02:42.842Z,13.60
2018-04-16T08:05:10.385Z,13.86
2018-04-16T08:07:37.975Z,14.22
2018-04-16T08:10:05.539Z,14.66
2018-04-16T08:12:33.160Z,14.38
2018-04-16T08:15:00.781Z,14.18
2018-04-16T08:17:28.632Z,14.66
2018-04-16T08:19:56.202Z,14.37
2018-04-16T08:22:23.982Z,14.60
2018-04-16T08:24:51.548Z,13.81
2018-04-16T08:27:19.248Z,14.19
2018-04-16T08:29:46.869Z,14.38
2018-04-16T08:32:14.579Z,14.22
2018-04-16T08:34:42.361Z,14.24
2018-04-16T08:37:09.921Z,14.61
2018-04-16T08:39:37.504Z,14.83
2018-04-16T08:42:05.152Z,15.27
2018-04-16T08:44:32.741Z,14.81
2018-04-16T08:47:00.296Z,15.32
2018-04-16T08:49:27.898Z,14.54
2018-04-16T08:51:55.541Z,14.52
2018-04-16T08:54:23.357Z,14.99
2018-04-16T08:56:51.204Z,15.75
2018-04-16T08:59:18.765Z,14.88
2018-04-16T09:01:46.330Z,15.45
2018-04-16T09:04:13.922Z,16.15
2018-04-16T09:06:41.493Z,15.62
2018-04-16T09:09:09.210Z,15.09
2018-04-16T09:11:37.006Z,16.33
2018-04-16T09:14:04.562Z,16.45
2018-04-16T09:16:32.199Z,16.47
2018-04-16T09:18:59.816Z,17.15
2018-04-16T09:21:27.363Z,16.35
2018-04-16T09:23:54.952Z,16.28
2018-04-16T09:26:22.522Z,16.21
2018-04-16T09:28:50.305Z,16.72
2018-04-16T09:31:17.882Z,16.76
2018-04-16T09:33:45.465Z,16.75
2018-04-16T09:36:13.255Z,16.86
2018-04-16T09:38:40.969Z,16.87
2018-04-16T09:41:08.680Z,17.01
2018-04-16T09:43:36.463Z,16.16
2018-04-16T09:46:04.028Z,16.78
2018-04-16T09:48:32.224Z,17.03
2018-04-16T09:50:59.778Z,16.83
2018-04-16T09:53:27.349Z,16.92
2018-04-16T09:55:55.067Z,17.13
2018-04-16T09:58:22.632Z,17.03
2018-04-16T10:00:52.006Z,16.16
2018-04-16T10:03:19.603Z,16.95
2018-04-16T10:05:48.207Z,17.23
2018-04-16T10:08:15.921Z,17.38
2018-04-16T10:10:43.474Z,17.49
2018-04-16T10:13:11.047Z,17.49
2018-04-16T10:15:38.693Z,18.31
2018-04-16T10:18:06.296Z,17.19
2018-04-16T10:20:34.032Z,16.83
2018-04-16T10:23:01.707Z,16.66
2018-04-16T10:25:29.918Z,16.30
2018-04-16T10:27:57.695Z,16.06
2018-04-16T10:30:25.280Z,16.03
2018-04-16T10:32:52.856Z,16.24
2018-04-16T10:35:20.411Z,16.98
2018-04-16T10:37:48.113Z,16.44
2018-04-16T10:40:15.659Z,16.36
2018-04-16T10:42:43.447Z,16.97
2018-04-16T10:45:11.023Z,16.38
2018-04-16T10:47:38.798Z,17.24
2018-04-16T10:50:06.342Z,17.24
2018-04-16T10:52:33.919Z,17.89
2018-04-16T10:55:01.721Z,16.41
2018-04-16T10:57:29.370Z,16.85
2018-04-16T10:59:56.989Z,16.11
2018-04-16T11:02:24.693Z,16.90
2018-04-16T11:04:52.267Z,16.63
2018-04-16T11:07:19.858Z,16.58
2018-04-16T11:09:47.671Z,16.64
2018-04-16T11:12:15.272Z,16.00
2018-04-16T11:14:42.978Z,16.17
2018-04-16T11:17:10.554Z,15.97
2018-04-16T11:19:38.137Z,16.66
2018-04-16T11:22:05.684Z,16.12
2018-04-16T11:24:33.271Z,16.33
2018-04-16T11:27:01.097Z,17.46
2018-04-16T11:29:28.930Z,17.58
2018-04-16T11:31:56.494Z,16.84
2018-04-16T11:34:24.052Z,16.22
2018-04-16T11:36:51.840Z,16.16
2018-04-16T11:39:19.394Z,16.47
2018-04-16T11:41:47.147Z,16.08
2018-04-16T11:44:14.730Z,16.51
2018-04-16T11:46:42.285Z,17.10
2018-04-16T11:49:09.992Z,17.06
2018-04-16T11:51:37.535Z,16.90
2018-04-16T11:54:05.322Z,17.23
2018-04-16T11:56:32.891Z,17.47
2018-04-16T11:59:00.468Z,17.89
2018-04-16T12:01:28.470Z,18.60
2018-04-16T12:03:56.030Z,17.22
2018-04-16T12:06:23.600Z,17.34
2018-04-16T12:08:51.371Z,18.19
2018-04-16T12:11:19.159Z,17.81
2018-04-16T12:13:46.968Z,17.42
2018-04-16T12:16:14.538Z,17.18
2018-04-16T12:18:42.109Z,16.86
2018-04-16T12:21:09.670Z,17.75
2018-04-16T12:23:37.215Z,17.06
2018-04-16T12:26:04.968Z,17.28
2018-04-16T12:28:32.506Z,17.00
2018-04-16T12:31:00.350Z,17.33
2018-04-16T12:33:27.896Z,17.62
2018-04-16T12:35:55.633Z,18.04
2018-04-16T12:38:23.382Z,18.13
2018-04-16T12:40:50.960Z,18.20
2018-04-16T12:43:18.666Z,18.44
2018-04-16T12:45:46.229Z,18.07
2018-04-16T12:48:13.784Z,17.62
2018-04-16T12:50:41.355Z,17.72
2018-04-16T12:53:08.896Z,17.97
2018-04-16T12:55:36.503Z,18.11
2018-04-16T12:58:04.070Z,17.80
2018-04-16T13:00:31.621Z,17.70
2018-04-16T13:02:59.420Z,18.00
2018-04-16T13:05:26.975Z,18.50
2018-04-16T13:07:54.708Z,18.47
2018-04-16T13:10:22.454Z,18.26
2018-04-16T13:12:50.040Z,18.67
2018-04-16T13:15:17.593Z,18.76
2018-04-16T13:17:45.286Z,18.26
2018-04-16T13:20:13.078Z,18.23
2018-04-16T13:22:40.828Z,18.30
2018-04-16T13:25:08.606Z,17.47
2018-04-16T13:27:36.160Z,17.31
2018-04-16T13:30:03.957Z,17.35
2018-04-16T13:32:31.512Z,17.26
2018-04-16T13:34:59.093Z,17.13
2018-04-16T13:37:27.085Z,16.82
2018-04-16T13:39:54.866Z,17.51
2018-04-16T13:42:22.591Z,17.66
2018-04-16T13:44:50.422Z,18.39
2018-04-16T13:47:18.198Z,17.62
2018-04-16T13:49:45.770Z,17.43
2018-04-16T13:52:13.549Z,17.57
2018-04-16T13:54:41.252Z,16.95
2018-04-16T13:57:08.789Z,17.41
2018-04-16T13:59:36.326Z,17.35
2018-04-16T14:02:03.939Z,17.65
2018-04-16T14:04:31.501Z,16.67
2018-04-16T14:06:59.057Z,17.03
2018-04-16T14:09:26.659Z,17.07
2018-04-16T14:11:54.198Z,17.44
2018-04-16T14:14:22.017Z,17.11
2018-04-16T14:16:49.609Z,17.36
2018-04-16T14:19:17.145Z,17.93
2018-04-16T14:21:44.741Z,18.12
2018-04-16T14:24:12.300Z,18.22
2018-04-16T14:26:39.994Z,18.71
2018-04-16T14:29:07.770Z,18.14
2018-04-16T14:31:35.315Z,18.88
2018-04-16T14:34:02.891Z,19.18
2018-04-16T14:36:30.626Z,18.80
2018-04-16T14:38:58.189Z,17.64
2018-04-16T14:41:25.745Z,17.66
2018-04-16T14:43:53.343Z,17.38
2018-04-16T14:46:20.909Z,17.67
2018-04-16T14:48:48.824Z,17.18
2018-04-16T14:51:16.377Z,17.27
2018-04-16T14:53:43.924Z,16.98
2018-04-16T14:56:11.490Z,17.01
2018-04-16T14:58:39.265Z,17.00
2018-04-16T15:01:06.857Z,16.97
2018-04-16T15:03:34.475Z,17.04
2018-04-16T15:06:02.290Z,17.18
2018-04-16T15:08:30.270Z,17.21
2018-04-16T15:10:57.831Z,16.84
2018-04-16T15:13:25.379Z,17.61
2018-04-16T15:15:53.196Z,17.81
2018-04-16T15:18:21.126Z,17.40
2018-04-16T15:20:48.854Z,17.24
2018-04-16T15:23:16.418Z,17.08
2018-04-16T15:25:44.121Z,17.53
2018-04-16T15:28:11.843Z,17.75
2018-04-16T15:30:39.400Z,16.87
2018-04-16T15:33:06.976Z,16.76
2018-04-16T15:35:34.512Z,16.92
2018-04-16T15:38:02.106Z,16.79
2018-04-16T15:40:29.723Z,16.50
2018-04-16T15:42:57.456Z,16.52
2018-04-16T15:45:25.024Z,16.57
2018-04-16T15:47:52.558Z,16.76
2018-04-16T15:50:20.281Z,16.59
2018-04-16T15:52:47.841Z,16.89
2018-04-16T15:55:15.404Z,16.60
2018-04-16T15:57:42.966Z,17.19
2018-04-16T16:00:10.551Z,17.16
2018-04-16T16:02:38.090Z,16.59
2018-04-16T16:05:05.655Z,16.21
2018-04-16T16:07:33.672Z,16.46
2018-04-16T16:10:01.226Z,16.16
2018-04-16T16:12:28.777Z,16.37
2018-04-16T16:14:56.378Z,16.95
2018-04-16T16:17:24.163Z,16.72
2018-04-16T16:19:51.712Z,16.81
2018-04-16T16:22:19.344Z,17.14
2018-04-16T16:24:46.896Z,16.75
2018-04-16T16:27:14.665Z,16.59
2018-04-16T16:29:42.231Z,16.52
2018-04-16T16:32:10.015Z,17.04
2018-04-16T16:34:37.604Z,16.85
2018-04-16T16:37:05.185Z,16.66
2018-04-16T16:39:32.865Z,16.32
2018-04-16T16:42:00.435Z,16.39
2018-04-16T16:44:27.993Z,16.35
2018-04-16T16:46:55.580Z,15.96
2018-04-16T16:49:23.124Z,16.09
2018-04-16T16:51:50.909Z,15.92
2018-04-16T16:54:18.483Z,15.80
2018-04-16T16:56:46.059Z,15.95
2018-04-16T16:59:13.630Z,15.78
2018-04-16T17:01:41.405Z,15.72
2018-04-16T17:04:08.970Z,15.68
2018-04-16T17:06:36.523Z,15.53
2018-04-16T17:09:04.671Z,15.47
2018-04-16T17:11:32.417Z,15.64
2018-04-16T17:14:00.008Z,15.46
2018-04-16T17:16:27.579Z,15.51
2018-04-16T17:18:55.164Z,15.41
2018-04-16T17:21:22.733Z,15.33
2018-04-16T17:23:50.590Z,15.22
2018-04-16T17:26:18.181Z,15.18
2018-04-16T17:28:45.759Z,15.10
2018-04-16T17:31:13.310Z,14.93
2018-04-16T17:33:40.892Z,15.06
2018-04-16T17:36:08.435Z,14.99
2018-04-16T17:38:36.488Z,14.89
2018-04-16T17:41:04.138Z,14.62
2018-04-16T17:43:31.695Z,14.72
2018-04-16T17:45:59.309Z,14.67
2018-04-16T17:48:26.915Z,14.71
2018-04-16T17:50:54.508Z,14.87
2018-04-16T17:53:22.077Z,14.49
2018-04-16T17:55:49.779Z,14.31
2018-04-16T17:58:17.339Z,14.18
2018-04-16T18:00:44.889Z,14.33
2018-04-16T18:03:12.473Z,14.13
2018-04-16T18:05:40.077Z,14.14
2018-04-16T18:08:07.836Z,13.94
2018-04-16T18:10:35.376Z,13.91
2018-04-16T18:13:02.942Z,13.84
2018-04-16T18:15:30.762Z,13.75
2018-04-16T18:17:58.454Z,13.87
2018-04-16T18:20:26.002Z,13.78
2018-04-16T18:22:53.791Z,13.67
2018-04-16T18:25:21.392Z,13.60
2018-04-16T18:27:48.931Z,13.43
2018-04-16T18:30:16.510Z,13.23
2018-04-16T18:32:44.092Z,13.24
2018-04-16T18:35:11.716Z,13.11
2018-04-16T18:37:39.374Z,12.98
2018-04-16T18:40:06.927Z,12.98
2018-04-16T18:42:34.508Z,12.75
2018-04-16T18:45:02.538Z,12.54
2018-04-16T18:47:30.086Z,12.51
2018-04-16T18:49:57.808Z,12.30
2018-04-16T18:52:25.505Z,12.40
2018-04-16T18:54:53.051Z,12.27
2018-04-16T18:57:20.644Z,12.29
2018-04-16T18:59:48.652Z,12.19
2018-04-16T19:02:16.253Z,12.19
2018-04-16T19:04:43.818Z,12.11
2018-04-16T19:07:11.382Z,12.00
2018-04-16T19:09:39.143Z,11.92
2018-04-16T19:12:06.701Z,11.87
2018-04-16T19:14:34.703Z,11.82
2018-04-16T19:17:02.328Z,11.71
2018-04-16T19:19:29.884Z,11.64
2018-04-16T19:21:57.780Z,11.58
2018-04-16T19:24:25.531Z,11.29
2018-04-16T19:26:58.965Z,11.42
2018-04-16T19:29:26.541Z,11.09
2018-04-16T19:31:54.097Z,11.08
2018-04-16T19:34:27.506Z,11.07
2018-04-16T19:36:55.068Z,10.96
2018-04-16T19:39:22.606Z,10.72
2018-04-16T19:41:55.695Z,10.70
2018-04-16T19:44:23.272Z,10.62
2018-04-16T19:46:50.823Z,10.52
2018-04-16T19:49:24.066Z,10.45
2018-04-16T19:51:51.610Z,10.39
2018-04-16T19:54:19.192Z,10.21
2018-04-16T19:56:52.856Z,10.01
2018-04-16T19:59:20.591Z,9.98
2018-04-16T20:01:53.707Z,9.96
2018-04-16T20:04:21.259Z,9.90
2018-04-16T20:06:48.827Z,9.84
2018-04-16T20:09:16.408Z,9.83
2018-04-16T20:11:44.163Z,9.79
2018-04-16T20:14:11.799Z,9.75
2018-04-16T20:16:39.504Z,9.69
2018-04-16T20:19:07.049Z,9.59
2018-04-16T20:21:34.900Z,9.48
2018-04-16T20:24:02.438Z,9.43
2018-04-16T20:26:30.248Z,9.33
2018-04-16T20:28:57.950Z,9.26
2018-04-16T20:31:25.654Z,9.20
2018-04-16T20:33:53.195Z,9.12
2018-04-16T20:36:20.776Z,9.04
2018-04-16T20:38:48.349Z,8.99
2018-04-16T20:41:15.901Z,8.93
2018-04-16T20:43:43.904Z,8.90
2018-04-16T20:46:11.543Z,8.85
2018-04-16T20:48:39.097Z,8.81
2018-04-16T20:51:06.837Z,8.76
2018-04-16T20:53:34.380Z,8.71
2018-04-16T20:56:01.926Z,8.68
2018-04-16T20:58:29.508Z,8.60
2018-04-16T21:00:57.064Z,8.63
2018-04-16T21:03:24.669Z,8.56
2018-04-16T21:05:52.392Z,8.44
2018-04-16T21:08:19.945Z,8.39
2018-04-16T21:10:47.799Z,8.37
2018-04-16T21:13:15.342Z,8.31
2018-04-16T21:15:42.893Z,8.30
2018-04-16T21:18:10.468Z,8.21
2018-04-16T21:20:38.194Z,8.18
2018-04-16T21:23:05.997Z,8.14
2018-04-16T21:25:33.553Z,8.21
2018-04-16T21:28:01.099Z,8.09
2018-04-16T21:30:28.733Z,8.01
2018-04-16T21:32:56.289Z,7.95
2018-04-16T21:35:23.891Z,7.86
2018-04-16T21:37:51.716Z,7.81
2018-04-16T21:40:19.296Z,7.88
2018-04-16T21:42:46.838Z,7.74
2018-04-16T21:45:14.399Z,7.64
2018-04-16T21:47:41.977Z,7.59
2018-04-16T21:50:09.555Z,7.60
2018-04-16T21:52:37.141Z,7.69
2018-04-16T21:55:04.936Z,7.61
2018-04-16T21:57:32.522Z,7.63
2018-04-16T22:00:00.283Z,7.52
2018-04-16T22:02:27.828Z,7.44
2018-04-16T22:04:55.863Z,7.39
2018-04-16T22:07:23.619Z,7.40
2018-04-16T22:09:51.209Z,7.33
2018-04-16T22:12:19.073Z,7.35
2018-04-16T22:14:46.757Z,7.21
2018-04-16T22:17:14.315Z,7.15
2018-04-16T22:19:41.888Z,7.12
2018-04-16T22:22:09.674Z,7.07
2018-04-16T22:24:37.280Z,7.01
2018-04-16T22:27:04.871Z,6.99
2018-04-16T22:29:32.421Z,7.02
2018-04-16T22:32:00.201Z,7.01
2018-04-16T22:34:27.759Z,6.92
2018-04-16T22:36:55.309Z,6.85
2018-04-16T22:39:22.882Z,6.82
2018-04-16T22:41:50.445Z,6.80
2018-04-16T22:44:18.385Z,6.77
2018-04-16T22:46:45.944Z,6.76
2018-04-16T22:49:13.509Z,6.78
2018-04-16T22:51:41.107Z,6.72
2018-04-16T22:54:08.737Z,6.71
2018-04-16T22:56:36.306Z,6.59
2018-04-16T22:59:03.883Z,6.54
2018-04-16T23:01:31.771Z,6.50
2018-04-16T23:03:59.316Z,6.49
2018-04-16T23:06:27.036Z,6.49
2018-04-16T23:08:54.750Z,6.47
2018-04-16T23:11:22.298Z,6.45
2018-04-16T23:13:49.870Z,6.38
2018-04-16T23:16:17.424Z,6.35
2018-04-16T23:18:45.028Z,6.34
2018-04-16T23:21:12.575Z,6.28
2018-04-16T23:23:40.138Z,6.25
2018-04-16T23:26:08.011Z,6.24
2018-04-16T23:28:35.755Z,6.28
2018-04-16T23:31:03.318Z,6.20
2018-04-16T23:33:31.303Z,6.13
2018-04-16T23:35:59.120Z,6.08
2018-04-16T23:38:26.684Z,6.04
2018-04-16T23:40:54.813Z,6.00
2018-04-16T23:43:22.368Z,5.95
2018-04-16T23:45:50.097Z,5.93
2018-04-16T23:48:17.676Z,5.91
2018-04-16T23:50:45.252Z,5.93
2018-04-16T23:53:12.797Z,5.91
2018-04-16T23:55:40.380Z,5.86
2018-04-16T23:58:07.947Z,5.81
